createdAt,value
2022-12-13T00:01:56.149Z,16.58
2022-12-13T00:04:24.083Z,17.73
2022-12-13T00:06:51.223Z,16.55
2022-12-13T00:09:18.951Z,16.63
2022-12-13T00:11:45.858Z,16.42
2022-12-13T00:14:14.288Z,16.95
2022-12-13T00:16:41.142Z,19.58
2022-12-13T00:19:07.849Z,24.67
2022-12-13T00:21:34.544Z,23.10
2022-12-13T00:24:01.422Z,19.17
2022-12-13T00:26:31.103Z,18.27
2022-12-13T00:29:05.696Z,18.30
2022-12-13T00:34:19.194Z,16.85
2022-12-13T00:36:46.585Z,16.75
2022-12-13T00:39:14.077Z,18.08
2022-12-13T00:41:41.500Z,19.75
2022-12-13T00:44:08.068Z,18.83
2022-12-13T00:46:34.639Z,17.75
2022-12-13T00:49:01.858Z,18.30
2022-12-13T00:51:31.033Z,16.55
2022-12-13T00:53:58.716Z,16.98
2022-12-13T00:56:27.087Z,17.67
2022-12-13T00:58:54.044Z,15.07
2022-12-13T01:01:24.582Z,15.73
2022-12-13T01:03:54.047Z,17.67
2022-12-13T01:06:23.270Z,16.70
2022-12-13T01:08:49.885Z,16.55
2022-12-13T01:11:17.000Z,17.15
2022-12-13T01:13:44.023Z,15.93
2022-12-13T01:16:11.879Z,16.05
2022-12-13T01:18:39.365Z,16.38
2022-12-13T01:21:17.334Z,16.00
2022-12-13T01:23:44.674Z,16.33
2022-12-13T01:26:14.297Z,16.80
2022-12-13T01:28:40.889Z,18.35
2022-12-13T01:31:10.400Z,16.92
2022-12-13T01:33:37.562Z,16.25
2022-12-13T01:36:07.247Z,16.25
2022-12-13T01:38:38.042Z,16.13
2022-12-13T01:41:17.183Z,18.88
2022-12-13T01:43:48.599Z,17.55
2022-12-13T01:46:17.078Z,17.65
2022-12-13T01:49:01.408Z,15.90
2022-12-13T01:51:34.217Z,17.48
2022-12-13T01:54:03.234Z,16.75
2022-12-13T01:56:39.088Z,16.95
2022-12-13T01:59:07.175Z,17.15
2022-12-13T02:01:34.224Z,17.67
2022-12-13T02:04:00.847Z,16.70
2022-12-13T02:06:33.865Z,18.27
2022-12-13T02:09:01.154Z,17.52
2022-12-13T02:11:28.198Z,17.10
2022-12-13T02:13:54.869Z,17.98
2022-12-13T02:16:34.775Z,17.63
2022-12-13T02:19:10.358Z,17.05
2022-12-13T02:21:39.803Z,16.17
2022-12-13T02:24:09.516Z,15.10
2022-12-13T02:27:06.689Z,17.63
2022-12-13T02:29:33.242Z,16.73
2022-12-13T02:32:15.634Z,18.70
2022-12-13T02:34:48.623Z,18.55
2022-12-13T02:37:29.701Z,16.95
2022-12-13T02:40:11.653Z,17.00
2022-12-13T02:42:44.926Z,18.27
2022-12-13T02:45:25.639Z,17.10
2022-12-13T02:47:55.035Z,16.92
2022-12-13T02:50:22.431Z,16.73
2022-12-13T02:52:49.164Z,16.50
2022-12-13T02:55:17.136Z,16.35
2022-12-13T03:00:18.152Z,15.75
2022-12-13T03:03:12.920Z,15.35
2022-12-13T03:06:33.703Z,18.27
2022-12-13T03:09:26.238Z,16.48
2022-12-13T03:12:17.525Z,16.20
2022-12-13T03:15:13.973Z,17.40
2022-12-13T03:17:50.050Z,16.80
2022-12-13T03:20:24.563Z,15.75
2022-12-13T03:22:52.174Z,16.65
2022-12-13T03:25:30.561Z,17.35
2022-12-13T03:28:01.678Z,15.95
2022-12-13T03:30:29.806Z,17.08
2022-12-13T03:32:56.344Z,18.03
2022-12-13T03:35:23.122Z,15.32
2022-12-13T03:37:50.283Z,15.15
2022-12-13T03:40:18.093Z,16.35
2022-12-13T03:42:44.762Z,15.68
2022-12-13T03:45:11.483Z,17.70
2022-12-13T03:47:38.042Z,16.90
2022-12-13T03:50:26.930Z,17.67
2022-12-13T03:52:52.110Z,16.40
2022-12-13T03:55:19.170Z,15.48
2022-12-13T03:57:45.732Z,17.65
2022-12-13T04:00:13.121Z,14.98
2022-12-13T04:02:39.754Z,15.82
2022-12-13T04:05:06.673Z,15.32
2022-12-13T04:07:34.423Z,18.60
2022-12-13T04:10:01.259Z,16.30
2022-12-13T04:12:48.526Z,15.30
2022-12-13T04:15:15.750Z,15.55
2022-12-13T04:17:42.780Z,15.57
2022-12-13T04:20:10.043Z,16.75
2022-12-13T04:22:36.854Z,17.90
2022-12-13T04:25:04.599Z,16.17
2022-12-13T04:27:31.412Z,15.88
2022-12-13T04:29:57.963Z,15.85
2022-12-13T04:32:26.957Z,16.10
2022-12-13T04:35:01.112Z,16.33
2022-12-13T04:37:28.471Z,14.35
2022-12-13T04:40:00.679Z,14.35
2022-12-13T04:42:27.886Z,15.68
2022-12-13T04:44:54.497Z,14.75
2022-12-13T04:47:21.210Z,15.73
2022-12-13T04:49:48.061Z,15.77
2022-12-13T04:52:22.769Z,15.15
2022-12-13T04:54:56.032Z,15.32
2022-12-13T04:57:23.378Z,15.55
2022-12-13T04:59:49.935Z,16.27
2022-12-13T05:02:23.369Z,15.18
2022-12-13T05:04:54.182Z,16.23
2022-12-13T05:07:21.787Z,16.63
2022-12-13T05:09:48.642Z,18.00
2022-12-13T05:12:22.513Z,17.50
2022-12-13T05:14:53.429Z,14.73
2022-12-13T05:17:20.539Z,15.90
2022-12-13T05:19:47.072Z,15.10
2022-12-13T05:22:19.935Z,16.65
2022-12-13T05:24:47.787Z,16.92
2022-12-13T05:27:25.017Z,16.67
2022-12-13T05:30:02.679Z,16.00
2022-12-13T05:32:33.866Z,14.57
2022-12-13T05:35:11.927Z,15.68
2022-12-13T05:37:38.580Z,15.43
2022-12-13T05:40:05.763Z,15.07
2022-12-13T05:42:32.314Z,15.43
2022-12-13T05:44:58.919Z,16.25
2022-12-13T05:47:25.489Z,16.65
2022-12-13T05:49:52.227Z,15.07
2022-12-13T05:52:20.382Z,17.42
2022-12-13T05:57:13.550Z,16.58
2022-12-13T05:59:40.094Z,16.63
2022-12-13T06:02:06.860Z,17.17
2022-12-13T06:04:33.605Z,18.20
2022-12-13T06:07:00.171Z,18.27
2022-12-13T06:09:26.763Z,21.85
2022-12-13T06:12:01.110Z,19.05
2022-12-13T06:14:28.345Z,18.85
2022-12-13T06:16:54.978Z,18.38
2022-12-13T06:19:22.518Z,16.92
2022-12-13T06:21:50.328Z,19.10
2022-12-13T06:24:18.831Z,20.05
2022-12-13T06:26:46.347Z,18.02
2022-12-13T06:29:23.800Z,18.60
2022-12-13T06:31:54.083Z,17.35
2022-12-13T06:34:20.733Z,16.95
2022-12-13T06:36:47.261Z,18.38
2022-12-13T06:39:15.659Z,17.27
2022-12-13T06:41:42.264Z,16.95
2022-12-13T06:44:08.878Z,17.67
2022-12-13T06:46:35.661Z,17.35
2022-12-13T06:49:02.488Z,16.50
2022-12-13T06:51:32.845Z,17.13
2022-12-13T06:54:00.822Z,15.85
2022-12-13T06:56:27.722Z,18.90
2022-12-13T06:58:54.299Z,16.50
2022-12-13T07:01:28.317Z,16.48
2022-12-13T07:04:04.065Z,16.17
2022-12-13T07:06:30.658Z,16.45
2022-12-13T07:08:58.138Z,17.23
2022-12-13T07:11:26.723Z,16.17
2022-12-13T07:13:54.015Z,16.10
2022-12-13T07:16:21.751Z,15.83
2022-12-13T07:18:48.704Z,16.02
2022-12-13T07:21:22.266Z,15.82
2022-12-13T07:23:54.946Z,16.27
2022-12-13T07:26:22.347Z,16.80
2022-12-13T07:28:54.503Z,16.88
2022-12-13T07:31:21.910Z,15.55
2022-12-13T07:33:48.888Z,15.38
2022-12-13T07:36:18.451Z,16.98
2022-12-13T07:38:45.430Z,16.38
2022-12-13T07:41:12.113Z,18.05
2022-12-13T07:43:38.715Z,16.05
2022-12-13T07:46:06.414Z,16.75
2022-12-13T07:48:33.498Z,16.63
2022-12-13T07:51:06.933Z,15.70
2022-12-13T07:53:34.176Z,16.80
2022-12-13T07:56:11.673Z,16.67
2022-12-13T07:58:42.837Z,16.58
2022-12-13T08:01:10.194Z,16.52
2022-12-13T08:03:36.820Z,16.25
2022-12-13T08:06:08.783Z,16.13
2022-12-13T08:08:35.841Z,16.50
2022-12-13T08:11:11.566Z,15.75
2022-12-13T08:13:39.317Z,16.88
2022-12-13T08:16:27.573Z,15.73
2022-12-13T08:19:02.013Z,17.40
2022-12-13T08:21:54.128Z,15.80
2022-12-13T08:24:23.898Z,14.93
2022-12-13T08:26:50.547Z,14.57
2022-12-13T08:29:22.353Z,15.32
2022-12-13T08:31:58.767Z,14.57
2022-12-13T08:34:27.939Z,14.88
2022-12-13T08:37:02.773Z,14.60
2022-12-13T08:39:35.756Z,15.85
2022-12-13T08:42:14.640Z,14.90
2022-12-13T08:44:44.623Z,16.15
2022-12-13T08:47:11.215Z,15.13
2022-12-13T08:49:37.957Z,15.40
2022-12-13T08:52:04.636Z,15.45
2022-12-13T08:54:33.546Z,15.68
2022-12-13T08:57:00.128Z,15.15
2022-12-13T08:59:27.047Z,15.30
2022-12-13T09:01:53.977Z,16.23
2022-12-13T09:07:01.239Z,15.65
2022-12-13T09:09:29.489Z,15.75
2022-12-13T09:11:59.078Z,15.77
2022-12-13T09:14:33.477Z,16.35
2022-12-13T09:17:02.878Z,14.35
2022-12-13T09:19:37.231Z,16.23
2022-12-13T09:22:05.208Z,15.75
2022-12-13T09:24:36.701Z,15.43
2022-12-13T09:27:09.115Z,17.05
2022-12-13T09:29:37.658Z,16.10
2022-12-13T09:32:04.559Z,15.48
2022-12-13T09:34:33.057Z,17.13
2022-12-13T09:37:01.175Z,16.30
2022-12-13T09:39:28.710Z,16.38
2022-12-13T09:42:00.943Z,16.85
2022-12-13T09:44:43.722Z,17.85
2022-12-13T09:47:47.123Z,16.30
2022-12-13T09:50:25.577Z,15.88
2022-12-13T09:52:52.564Z,16.75
2022-12-13T09:55:32.722Z,18.55
2022-12-13T09:58:01.161Z,17.33
2022-12-13T10:00:35.158Z,16.38
2022-12-13T10:03:02.028Z,16.50
2022-12-13T10:05:39.254Z,17.13
2022-12-13T10:08:20.967Z,16.48
2022-12-13T10:10:50.118Z,16.05
2022-12-13T10:13:42.938Z,15.93
2022-12-13T10:16:14.633Z,15.88
2022-12-13T10:18:50.062Z,17.42
2022-12-13T10:21:22.691Z,15.95
2022-12-13T10:26:37.394Z,14.82
2022-12-13T10:31:48.094Z,15.85
2022-12-13T10:34:24.646Z,15.55
2022-12-13T10:36:51.906Z,15.55
2022-12-13T10:39:42.383Z,16.98
2022-12-13T10:42:22.964Z,16.13
2022-12-13T10:45:10.637Z,16.08
2022-12-13T10:47:37.339Z,15.20
2022-12-13T10:50:04.170Z,17.23
2022-12-13T10:52:43.134Z,16.15
2022-12-13T10:55:28.842Z,15.65
2022-12-13T10:58:07.226Z,14.98
2022-12-13T11:00:46.329Z,15.98
2022-12-13T11:03:33.724Z,15.77
2022-12-13T11:06:10.049Z,16.38
2022-12-13T11:08:36.667Z,17.25
2022-12-13T11:11:05.418Z,17.10
2022-12-13T11:13:50.620Z,16.67
2022-12-13T11:16:23.571Z,15.30
2022-12-13T11:19:02.855Z,16.77
2022-12-13T11:21:32.472Z,16.55
2022-12-13T11:24:02.641Z,15.48
2022-12-13T11:26:32.102Z,16.08
2022-12-13T11:29:07.591Z,16.83
2022-12-13T11:31:43.820Z,16.42
2022-12-13T11:34:31.037Z,18.38
2022-12-13T11:37:06.158Z,16.90
2022-12-13T11:40:14.327Z,18.55
2022-12-13T11:42:46.619Z,17.58
2022-12-13T11:45:22.387Z,17.85
2022-12-13T11:48:08.783Z,17.77
2022-12-13T11:50:39.055Z,16.80
2022-12-13T11:53:31.574Z,15.95
2022-12-13T11:56:10.354Z,17.05
2022-12-13T11:59:01.938Z,18.33
2022-12-13T12:01:41.408Z,15.88
2022-12-13T12:04:16.226Z,17.33
2022-12-13T12:07:30.693Z,17.13
2022-12-13T12:09:58.232Z,18.27
2022-12-13T12:12:32.570Z,18.08
2022-12-13T12:15:15.945Z,17.83
2022-12-13T12:17:43.487Z,19.15
2022-12-13T12:20:13.590Z,16.63
2022-12-13T12:23:11.541Z,18.02
2022-12-13T12:25:46.164Z,16.92
2022-12-13T12:28:18.914Z,19.33
2022-12-13T12:31:13.225Z,18.63
2022-12-13T12:33:56.266Z,18.67
2022-12-13T12:37:02.844Z,18.98
2022-12-13T12:39:51.122Z,18.23
2022-12-13T12:42:56.408Z,16.90
2022-12-13T12:45:55.856Z,17.90
2022-12-13T12:48:55.043Z,16.90
2022-12-13T12:52:03.686Z,18.27
2022-12-13T12:54:36.703Z,17.08
2022-12-13T12:57:10.920Z,18.02
2022-12-13T13:00:02.736Z,18.17
2022-12-13T13:02:43.919Z,17.27
2022-12-13T13:05:28.163Z,17.75
2022-12-13T13:08:07.151Z,17.65
2022-12-13T13:10:33.898Z,19.17
2022-12-13T13:13:11.725Z,17.08
2022-12-13T13:15:39.770Z,19.48
2022-12-13T13:18:45.627Z,19.27
2022-12-13T13:21:24.052Z,19.60
2022-12-13T13:24:24.061Z,22.05
2022-12-13T13:26:53.554Z,18.83
2022-12-13T13:29:27.750Z,19.08
2022-12-13T13:32:12.867Z,22.00
2022-12-13T13:35:36.515Z,19.50
2022-12-13T13:38:24.322Z,18.35
2022-12-13T13:40:51.052Z,19.60
2022-12-13T13:43:32.462Z,19.25
2022-12-13T13:46:10.894Z,21.23
2022-12-13T13:48:40.586Z,19.77
2022-12-13T13:51:49.423Z,21.20
2022-12-13T13:55:04.422Z,19.60
2022-12-13T13:58:13.762Z,19.48
2022-12-13T14:01:19.832Z,18.23
2022-12-13T14:04:05.215Z,19.15
2022-12-13T14:06:37.748Z,18.73
2022-12-13T14:09:30.339Z,18.95
2022-12-13T14:12:24.652Z,18.58
2022-12-13T14:15:22.214Z,18.08
2022-12-13T14:18:22.842Z,18.23
2022-12-13T14:21:16.945Z,17.10
2022-12-13T14:24:04.750Z,19.58
2022-12-13T14:26:59.825Z,18.70
2022-12-13T14:29:32.047Z,18.25
2022-12-13T14:31:59.005Z,18.90
2022-12-13T14:34:27.929Z,18.77
2022-12-13T14:37:00.089Z,18.15
2022-12-13T14:39:29.432Z,17.25
2022-12-13T14:41:59.851Z,18.88
2022-12-13T14:44:31.734Z,17.42
2022-12-13T14:47:08.078Z,18.42
2022-12-13T14:49:36.864Z,18.48
2022-12-13T14:52:06.673Z,18.15
2022-12-13T14:54:58.149Z,18.58
2022-12-13T14:57:27.870Z,19.02
2022-12-13T14:59:57.036Z,18.63
2022-12-13T15:02:31.084Z,17.55
2022-12-13T15:05:03.893Z,17.98
2022-12-13T15:07:37.265Z,19.83
2022-12-13T15:10:48.302Z,19.17
2022-12-13T15:13:26.115Z,18.80
2022-12-13T15:16:10.275Z,19.45
2022-12-13T15:18:38.443Z,18.77
2022-12-13T15:21:24.129Z,20.50
2022-12-13T15:23:51.891Z,17.70
2022-12-13T15:26:28.882Z,19.50
2022-12-13T15:29:01.803Z,18.75
2022-12-13T15:31:37.375Z,18.13
2022-12-13T15:34:30.531Z,19.60
2022-12-13T15:37:28.863Z,19.80
2022-12-13T15:39:59.864Z,17.67
2022-12-13T15:42:31.646Z,20.42
2022-12-13T15:45:01.036Z,19.58
2022-12-13T15:47:29.246Z,20.13
2022-12-13T15:50:01.857Z,19.08
2022-12-13T15:52:38.214Z,20.98
2022-12-13T15:55:08.339Z,22.65
2022-12-13T15:57:48.359Z,20.08
2022-12-13T16:00:29.048Z,20.55
2022-12-13T16:03:09.328Z,21.70
2022-12-13T16:05:38.330Z,19.58
2022-12-13T16:10:49.140Z,19.65
2022-12-13T16:13:30.627Z,20.05
2022-12-13T16:16:09.243Z,20.08
2022-12-13T16:18:52.191Z,22.60
2022-12-13T16:21:19.276Z,25.45
2022-12-13T16:23:48.199Z,24.13
2022-12-13T16:26:21.436Z,23.40
2022-12-13T16:28:47.990Z,21.65
2022-12-13T16:31:21.245Z,21.38
2022-12-13T16:33:48.636Z,21.73
2022-12-13T16:36:15.266Z,21.80
2022-12-13T16:38:41.846Z,22.08
2022-12-13T16:41:09.787Z,20.95
2022-12-13T16:43:44.902Z,21.92
2022-12-13T16:47:12.088Z,20.83
2022-12-13T16:51:25.842Z,17.98
2022-12-13T16:53:52.370Z,19.33
2022-12-13T16:56:21.815Z,21.90
2022-12-13T16:58:50.469Z,20.27
2022-12-13T17:01:20.965Z,21.40
2022-12-13T17:03:48.084Z,19.33
2022-12-13T17:06:16.556Z,21.52
2022-12-13T17:08:43.119Z,20.33
2022-12-13T17:11:14.631Z,20.45
2022-12-13T17:13:44.658Z,20.45
2022-12-13T17:16:11.434Z,18.90
2022-12-13T17:18:38.059Z,23.15
2022-12-13T17:21:09.072Z,22.67
2022-12-13T17:23:35.925Z,21.67
2022-12-13T17:26:06.546Z,22.13
2022-12-13T17:28:33.375Z,19.90
2022-12-13T17:31:14.517Z,20.08
2022-12-13T17:33:41.965Z,20.42
2022-12-13T17:36:09.968Z,20.25
2022-12-13T17:38:37.162Z,21.02
2022-12-13T17:41:04.115Z,21.13
2022-12-13T17:43:34.741Z,19.55
2022-12-13T17:46:07.632Z,20.77
2022-12-13T17:48:40.177Z,20.40
2022-12-13T17:51:08.695Z,19.92
2022-12-13T17:53:36.537Z,17.95
2022-12-13T17:56:05.927Z,19.48
2022-12-13T17:58:32.770Z,21.85
2022-12-13T18:01:09.261Z,21.13
2022-12-13T18:03:35.910Z,19.00
2022-12-13T18:06:02.458Z,19.73
2022-12-13T18:08:29.011Z,18.65
2022-12-13T18:11:23.835Z,20.73
2022-12-13T18:13:43.097Z,19.70
2022-12-13T18:16:13.322Z,21.85
2022-12-13T18:18:39.881Z,19.08
2022-12-13T18:21:08.597Z,19.63
2022-12-13T18:23:35.926Z,19.27
2022-12-13T18:26:05.076Z,20.33
2022-12-13T18:28:31.873Z,22.25
2022-12-13T18:31:01.703Z,21.48
2022-12-13T18:33:28.712Z,19.85
2022-12-13T18:35:55.538Z,21.13
2022-12-13T18:38:23.245Z,20.30
2022-12-13T18:40:50.623Z,20.77
2022-12-13T18:43:20.499Z,21.63
2022-12-13T18:45:47.038Z,19.55
2022-12-13T18:48:13.590Z,20.38
2022-12-13T18:50:45.549Z,20.42
2022-12-13T18:53:15.174Z,19.63
2022-12-13T18:55:42.263Z,21.33
2022-12-13T18:58:08.807Z,19.88
2022-12-13T19:00:35.365Z,20.80
2022-12-13T19:03:02.028Z,21.00
2022-12-13T19:05:28.674Z,20.85
2022-12-13T19:07:55.274Z,21.83
2022-12-13T19:10:21.806Z,19.27
2022-12-13T19:12:48.377Z,21.90
2022-12-13T19:15:16.850Z,22.33
2022-12-13T19:17:43.673Z,20.92
2022-12-13T19:20:10.854Z,21.25
2022-12-13T19:22:37.724Z,20.65
2022-12-13T19:25:04.599Z,20.80
2022-12-13T19:27:31.168Z,18.70
2022-12-13T19:29:57.736Z,19.35
2022-12-13T19:32:24.887Z,21.42
2022-12-13T19:34:51.490Z,21.83
2022-12-13T19:37:19.269Z,21.02
2022-12-13T19:39:45.802Z,20.63
2022-12-13T19:42:12.412Z,19.45
2022-12-13T19:44:38.948Z,19.98
2022-12-13T19:47:06.580Z,19.58
2022-12-13T19:49:33.183Z,19.85
2022-12-13T19:52:00.257Z,21.00
2022-12-13T19:54:28.202Z,18.55
2022-12-13T19:56:54.964Z,18.00
2022-12-13T19:59:22.305Z,20.25
2022-12-13T20:01:48.897Z,19.50
2022-12-13T20:04:15.792Z,19.65
2022-12-13T20:06:42.600Z,19.83
2022-12-13T20:09:09.258Z,20.05
2022-12-13T20:11:36.279Z,18.83
2022-12-13T20:14:02.900Z,19.05
2022-12-13T20:16:29.577Z,18.50
2022-12-13T20:18:57.779Z,18.00
2022-12-13T20:23:51.255Z,18.95
2022-12-13T20:26:20.925Z,18.45
2022-12-13T20:28:48.414Z,17.90
2022-12-13T20:31:18.414Z,18.23
2022-12-13T20:33:45.028Z,18.98
2022-12-13T20:36:24.572Z,17.52
2022-12-13T20:38:52.718Z,19.50
2022-12-13T20:41:19.310Z,18.33
2022-12-13T20:43:48.283Z,16.70
2022-12-13T20:46:15.404Z,18.83
2022-12-13T20:48:43.703Z,17.90
2022-12-13T20:53:40.482Z,15.70
2022-12-13T20:56:10.817Z,17.10
2022-12-13T20:58:40.076Z,18.15
2022-12-13T21:01:07.075Z,17.35
2022-12-13T21:03:34.328Z,17.15
2022-12-13T21:06:01.002Z,18.02
2022-12-13T21:08:46.067Z,17.05
2022-12-13T21:11:24.877Z,17.63
2022-12-13T21:14:03.760Z,16.73
2022-12-13T21:16:53.222Z,17.02
2022-12-13T21:19:25.382Z,16.85
2022-12-13T21:21:52.906Z,16.95
2022-12-13T21:24:20.981Z,16.45
2022-12-13T21:26:47.704Z,17.70
2022-12-13T21:29:16.091Z,16.80
2022-12-13T21:31:44.249Z,16.85
2022-12-13T21:34:15.754Z,17.25
2022-12-13T21:36:44.019Z,17.48
2022-12-13T21:41:39.837Z,14.40
2022-12-13T21:44:06.457Z,16.25
2022-12-13T21:47:10.369Z,15.27
2022-12-13T21:49:19.746Z,15.80
2022-12-13T21:51:48.362Z,15.40
2022-12-13T21:54:15.663Z,18.75
2022-12-13T21:57:00.875Z,15.07
2022-12-13T21:59:28.768Z,15.98
2022-12-13T22:02:12.074Z,14.00
2022-12-13T22:04:41.677Z,15.07
2022-12-13T22:07:09.127Z,15.82
2022-12-13T22:09:36.311Z,15.23
2022-12-13T22:12:09.290Z,14.70
2022-12-13T22:14:36.358Z,14.50
2022-12-13T22:17:03.434Z,15.95
2022-12-13T22:19:30.140Z,15.15
2022-12-13T22:21:56.705Z,15.25
2022-12-13T22:24:23.269Z,15.25
2022-12-13T22:26:49.799Z,13.77
2022-12-13T22:29:16.623Z,16.67
2022-12-13T22:31:43.387Z,15.07
2022-12-13T22:34:15.573Z,16.08
2022-12-13T22:36:42.122Z,13.15
2022-12-13T22:39:16.458Z,15.18
2022-12-13T22:41:43.263Z,15.05
2022-12-13T22:44:13.826Z,15.65
2022-12-13T22:46:40.999Z,14.13
2022-12-13T22:49:08.403Z,14.43
2022-12-13T22:51:35.217Z,13.68
2022-12-13T22:54:01.793Z,13.00
2022-12-13T22:56:28.578Z,13.50
2022-12-13T22:58:56.572Z,14.38
2022-12-13T23:01:26.982Z,13.77
2022-12-13T23:03:54.009Z,13.50
2022-12-13T23:06:28.472Z,14.43
2022-12-13T23:09:03.068Z,13.63
2022-12-13T23:11:48.545Z,14.20
2022-12-13T23:14:18.067Z,12.93
2022-12-13T23:16:44.724Z,14.35
2022-12-13T23:22:02.016Z,14.00
2022-12-13T23:24:28.598Z,13.95
2022-12-13T23:26:55.185Z,13.60
2022-12-13T23:29:21.879Z,13.48
2022-12-13T23:31:49.033Z,12.10
2022-12-13T23:34:15.891Z,13.87
2022-12-13T23:36:42.629Z,13.85
2022-12-13T23:39:09.334Z,12.48
2022-12-13T23:41:36.429Z,14.23
2022-12-13T23:44:03.223Z,14.50
2022-12-13T23:46:34.937Z,13.38
2022-12-13T23:49:04.120Z,13.25
2022-12-13T23:51:31.379Z,13.07
2022-12-13T23:53:58.171Z,13.00
2022-12-13T23:56:24.888Z,14.00
2022-12-13T23:58:51.562Z,12.98
